sensor_id;sensor_type;location;lat;lon;timestamp;P1;durP1;ratioP1;P2;durP2;ratioP2
53939;SDS011;39850;43.324;21.916;2023-05-27T00:13:14;15.0;;;15.0;;
53939;SDS011;39850;43.324;21.916;2023-05-27T00:17:51;15.0;;;15.0;;
53939;SDS011;39850;43.324;21.916;2023-05-27T00:22:28;15.0;;;15.0;;
53939;SDS011;39850;43.324;21.916;2023-05-27T00:27:06;15.0;;;15.0;;
53939;SDS011;39850;43.324;21.916;2023-05-27T00:31:44;15.0;;;15.0;;
53939;SDS011;39850;43.324;21.916;2023-05-27T00:36:21;15.0;;;15.0;;
53939;SDS011;39850;43.324;21.916;2023-05-27T00:41:04;15.0;;;15.0;;
53939;SDS011;39850;43.324;21.916;2023-05-27T00:45:41;15.0;;;15.0;;
53939;SDS011;39850;43.324;21.916;2023-05-27T00:50:19;15.0;;;15.0;;
53939;SDS011;39850;43.324;21.916;2023-05-27T00:54:57;15.0;;;15.0;;
53939;SDS011;39850;43.324;21.916;2023-05-27T00:59:35;15.0;;;15.0;;
53939;SDS011;39850;43.324;21.916;2023-05-27T01:33:08;15.0;;;15.0;;
53939;SDS011;39850;43.324;21.916;2023-05-27T01:37:56;15.0;;;15.0;;
53939;SDS011;39850;43.324;21.916;2023-05-27T01:42:44;16.0;;;16.0;;
53939;SDS011;39850;43.324;21.916;2023-05-27T01:47:21;16.0;;;16.0;;
53939;SDS011;39850;43.324;21.916;2023-05-27T01:51:58;16.0;;;16.0;;
53939;SDS011;39850;43.324;21.916;2023-05-27T01:56:34;16.0;;;16.0;;
53939;SDS011;39850;43.324;21.916;2023-05-27T02:01:11;16.0;;;16.0;;
53939;SDS011;39850;43.324;21.916;2023-05-27T02:05:48;16.0;;;16.0;;
53939;SDS011;39850;43.324;21.916;2023-05-27T02:10:25;16.0;;;16.0;;
53939;SDS011;39850;43.324;21.916;2023-05-27T02:15:02;16.0;;;16.0;;
53939;SDS011;39850;43.324;21.916;2023-05-27T02:19:41;16.0;;;16.0;;
53939;SDS011;39850;43.324;21.916;2023-05-27T02:56:35;16.0;;;16.0;;
53939;SDS011;39850;43.324;21.916;2023-05-27T03:01:13;16.0;;;16.0;;
53939;SDS011;39850;43.324;21.916;2023-05-27T03:05:50;16.0;;;16.0;;
53939;SDS011;39850;43.324;21.916;2023-05-27T03:10:26;16.0;;;16.0;;
53939;SDS011;39850;43.324;21.916;2023-05-27T03:15:07;16.0;;;16.0;;
53939;SDS011;39850;43.324;21.916;2023-05-27T03:19:43;16.0;;;16.0;;
53939;SDS011;39850;43.324;21.916;2023-05-27T03:24:20;16.0;;;16.0;;
53939;SDS011;39850;43.324;21.916;2023-05-27T03:28:56;16.0;;;16.0;;
53939;SDS011;39850;43.324;21.916;2023-05-27T03:33:33;17.0;;;17.0;;
53939;SDS011;39850;43.324;21.916;2023-05-27T03:38:09;17.0;;;17.0;;
53939;SDS011;39850;43.324;21.916;2023-05-27T04:15:00;19.0;;;20.0;;
53939;SDS011;39850;43.324;21.916;2023-05-27T04:19:37;19.0;;;20.0;;
53939;SDS011;39850;43.324;21.916;2023-05-27T04:24:13;19.0;;;20.0;;
53939;SDS011;39850;43.324;21.916;2023-05-27T04:28:50;19.0;;;20.0;;
53939;SDS011;39850;43.324;21.916;2023-05-27T04:33:27;19.0;;;19.0;;
53939;SDS011;39850;43.324;21.916;2023-05-27T04:38:03;19.0;;;19.0;;
53939;SDS011;39850;43.324;21.916;2023-05-27T04:42:40;18.0;;;19.0;;
53939;SDS011;39850;43.324;21.916;2023-05-27T04:47:17;18.0;;;19.0;;
53939;SDS011;39850;43.324;21.916;2023-05-27T04:51:54;18.0;;;19.0;;
53939;SDS011;39850;43.324;21.916;2023-05-27T04:56:30;18.0;;;19.0;;
53939;SDS011;39850;43.324;21.916;2023-05-27T05:01:07;18.0;;;19.0;;
53939;SDS011;39850;43.324;21.916;2023-05-27T05:33:26;19.0;;;20.0;;
53939;SDS011;39850;43.324;21.916;2023-05-27T05:38:03;19.0;;;20.0;;
53939;SDS011;39850;43.324;21.916;2023-05-27T05:42:41;19.0;;;20.0;;
53939;SDS011;39850;43.324;21.916;2023-05-27T05:47:17;19.0;;;20.0;;
53939;SDS011;39850;43.324;21.916;2023-05-27T05:51:54;19.0;;;20.0;;
53939;SDS011;39850;43.324;21.916;2023-05-27T05:56:32;19.0;;;19.0;;
53939;SDS011;39850;43.324;21.916;2023-05-27T06:01:09;19.0;;;19.0;;
53939;SDS011;39850;43.324;21.916;2023-05-27T06:05:46;19.0;;;19.0;;
53939;SDS011;39850;43.324;21.916;2023-05-27T06:10:22;19.0;;;19.0;;
53939;SDS011;39850;43.324;21.916;2023-05-27T06:14:59;19.0;;;19.0;;
53939;SDS011;39850;43.324;21.916;2023-05-27T06:19:35;19.0;;;19.0;;
53939;SDS011;39850;43.324;21.916;2023-05-27T06:56:27;20.0;;;21.0;;
53939;SDS011;39850;43.324;21.916;2023-05-27T07:01:04;20.0;;;21.0;;
53939;SDS011;39850;43.324;21.916;2023-05-27T07:05:40;20.0;;;21.0;;
53939;SDS011;39850;43.324;21.916;2023-05-27T07:10:17;20.0;;;21.0;;
53939;SDS011;39850;43.324;21.916;2023-05-27T07:14:53;20.0;;;21.0;;
53939;SDS011;39850;43.324;21.916;2023-05-27T07:19:30;20.0;;;21.0;;
53939;SDS011;39850;43.324;21.916;2023-05-27T07:24:07;20.0;;;22.0;;
53939;SDS011;39850;43.324;21.916;2023-05-27T07:28:46;20.0;;;22.0;;
53939;SDS011;39850;43.324;21.916;2023-05-27T07:33:23;21.0;;;22.0;;
53939;SDS011;39850;43.324;21.916;2023-05-27T07:38:00;21.0;;;22.0;;
53939;SDS011;39850;43.324;21.916;2023-05-27T07:42:37;21.0;;;22.0;;
53939;SDS011;39850;43.324;21.916;2023-05-27T08:14:56;18.0;;;18.0;;
53939;SDS011;39850;43.324;21.916;2023-05-27T08:19:33;18.0;;;18.0;;
53939;SDS011;39850;43.324;21.916;2023-05-27T08:24:10;18.0;;;18.0;;
53939;SDS011;39850;43.324;21.916;2023-05-27T08:28:47;18.0;;;18.0;;
53939;SDS011;39850;43.324;21.916;2023-05-27T08:33:23;18.0;;;18.0;;
53939;SDS011;39850;43.324;21.916;2023-05-27T08:38:00;18.0;;;18.0;;
53939;SDS011;39850;43.324;21.916;2023-05-27T08:42:38;18.0;;;18.0;;
53939;SDS011;39850;43.324;21.916;2023-05-27T08:47:16;18.0;;;18.0;;
53939;SDS011;39850;43.324;21.916;2023-05-27T08:52:05;18.0;;;18.0;;
53939;SDS011;39850;43.324;21.916;2023-05-27T08:56:55;18.0;;;19.0;;
53939;SDS011;39850;43.324;21.916;2023-05-27T09:01:35;18.0;;;19.0;;
53939;SDS011;39850;43.324;21.916;2023-05-27T09:34:13;17.0;;;18.0;;
53939;SDS011;39850;43.324;21.916;2023-05-27T09:38:51;17.0;;;18.0;;
53939;SDS011;39850;43.324;21.916;2023-05-27T09:43:30;17.0;;;18.0;;
53939;SDS011;39850;43.324;21.916;2023-05-27T09:48:17;17.0;;;18.0;;
53939;SDS011;39850;43.324;21.916;2023-05-27T09:52:59;17.0;;;18.0;;
53939;SDS011;39850;43.324;21.916;2023-05-27T09:57:36;17.0;;;18.0;;
53939;SDS011;39850;43.324;21.916;2023-05-27T10:02:23;17.0;;;18.0;;
53939;SDS011;39850;43.324;21.916;2023-05-27T10:07:03;20.0;;;20.0;;
53939;SDS011;39850;43.324;21.916;2023-05-27T10:11:44;20.0;;;20.0;;
53939;SDS011;39850;43.324;21.916;2023-05-27T10:16:27;22.0;;;23.0;;
53939;SDS011;39850;43.324;21.916;2023-05-27T10:21:06;22.0;;;23.0;;
53939;SDS011;39850;43.324;21.916;2023-05-27T10:54:05;20.0;;;20.0;;
53939;SDS011;39850;43.324;21.916;2023-05-27T10:58:48;20.0;;;20.0;;
53939;SDS011;39850;43.324;21.916;2023-05-27T11:03:28;20.0;;;20.0;;
53939;SDS011;39850;43.324;21.916;2023-05-27T11:08:12;22.0;;;22.0;;
53939;SDS011;39850;43.324;21.916;2023-05-27T11:12:49;22.0;;;22.0;;
53939;SDS011;39850;43.324;21.916;2023-05-27T11:17:26;23.0;;;22.0;;
53939;SDS011;39850;43.324;21.916;2023-05-27T11:22:03;23.0;;;22.0;;
53939;SDS011;39850;43.324;21.916;2023-05-27T11:26:47;23.0;;;23.0;;
53939;SDS011;39850;43.324;21.916;2023-05-27T11:31:30;23.0;;;23.0;;
53939;SDS011;39850;43.324;21.916;2023-05-27T11:36:14;23.0;;;22.0;;
53939;SDS011;39850;43.324;21.916;2023-05-27T11:40:52;23.0;;;22.0;;
53939;SDS011;39850;43.324;21.916;2023-05-27T12:17:54;22.0;;;23.0;;
53939;SDS011;39850;43.324;21.916;2023-05-27T12:22:31;22.0;;;23.0;;
53939;SDS011;39850;43.324;21.916;2023-05-27T12:27:07;24.0;;;25.0;;
53939;SDS011;39850;43.324;21.916;2023-05-27T12:31:43;24.0;;;25.0;;
53939;SDS011;39850;43.324;21.916;2023-05-27T12:36:20;23.0;;;24.0;;
53939;SDS011;39850;43.324;21.916;2023-05-27T12:40:57;23.0;;;24.0;;
53939;SDS011;39850;43.324;21.916;2023-05-27T12:45:34;24.0;;;26.0;;
53939;SDS011;39850;43.324;21.916;2023-05-27T12:50:10;24.0;;;26.0;;
53939;SDS011;39850;43.324;21.916;2023-05-27T12:54:47;23.0;;;24.0;;
53939;SDS011;39850;43.324;21.916;2023-05-27T12:59:23;23.0;;;24.0;;
53939;SDS011;39850;43.324;21.916;2023-05-27T13:04:00;23.0;;;24.0;;
53939;SDS011;39850;43.324;21.916;2023-05-27T13:36:23;26.0;;;28.0;;
53939;SDS011;39850;43.324;21.916;2023-05-27T13:41:01;26.0;;;28.0;;
53939;SDS011;39850;43.324;21.916;2023-05-27T13:45:38;26.0;;;28.0;;
53939;SDS011;39850;43.324;21.916;2023-05-27T13:50:15;26.0;;;28.0;;
53939;SDS011;39850;43.324;21.916;2023-05-27T13:54:51;26.0;;;28.0;;
53939;SDS011;39850;43.324;21.916;2023-05-27T13:59:28;26.0;;;28.0;;
53939;SDS011;39850;43.324;21.916;2023-05-27T14:04:05;26.0;;;28.0;;
53939;SDS011;39850;43.324;21.916;2023-05-27T14:08:42;26.0;;;28.0;;
53939;SDS011;39850;43.324;21.916;2023-05-27T14:13:18;26.0;;;28.0;;
53939;SDS011;39850;43.324;21.916;2023-05-27T14:17:56;27.0;;;29.0;;
53939;SDS011;39850;43.324;21.916;2023-05-27T14:22:33;27.0;;;29.0;;
53939;SDS011;39850;43.324;21.916;2023-05-27T14:54:47;22.0;;;23.0;;
53939;SDS011;39850;43.324;21.916;2023-05-27T14:59:23;22.0;;;23.0;;
53939;SDS011;39850;43.324;21.916;2023-05-27T15:04:00;22.0;;;23.0;;
53939;SDS011;39850;43.324;21.916;2023-05-27T15:08:36;22.0;;;22.0;;
53939;SDS011;39850;43.324;21.916;2023-05-27T15:13:12;22.0;;;22.0;;
53939;SDS011;39850;43.324;21.916;2023-05-27T15:17:49;22.0;;;22.0;;
53939;SDS011;39850;43.324;21.916;2023-05-27T15:22:25;22.0;;;22.0;;
53939;SDS011;39850;43.324;21.916;2023-05-27T15:27:02;22.0;;;22.0;;
53939;SDS011;39850;43.324;21.916;2023-05-27T15:31:39;22.0;;;22.0;;
53939;SDS011;39850;43.324;21.916;2023-05-27T15:36:16;22.0;;;22.0;;
53939;SDS011;39850;43.324;21.916;2023-05-27T15:40:52;22.0;;;22.0;;
53939;SDS011;39850;43.324;21.916;2023-05-27T16:17:53;22.0;;;23.0;;
53939;SDS011;39850;43.324;21.916;2023-05-27T16:22:30;22.0;;;23.0;;
53939;SDS011;39850;43.324;21.916;2023-05-27T16:27:07;21.0;;;22.0;;
53939;SDS011;39850;43.324;21.916;2023-05-27T16:31:43;21.0;;;22.0;;
53939;SDS011;39850;43.324;21.916;2023-05-27T16:36:20;22.0;;;21.0;;
53939;SDS011;39850;43.324;21.916;2023-05-27T16:40:57;22.0;;;21.0;;
53939;SDS011;39850;43.324;21.916;2023-05-27T16:45:33;21.0;;;21.0;;
53939;SDS011;39850;43.324;21.916;2023-05-27T16:50:11;21.0;;;21.0;;
53939;SDS011;39850;43.324;21.916;2023-05-27T16:54:48;21.0;;;21.0;;
53939;SDS011;39850;43.324;21.916;2023-05-27T16:59:24;22.0;;;21.0;;
53939;SDS011;39850;43.324;21.916;2023-05-27T17:04:00;22.0;;;21.0;;
53939;SDS011;39850;43.324;21.916;2023-05-27T17:36:16;23.0;;;24.0;;
53939;SDS011;39850;43.324;21.916;2023-05-27T17:40:53;23.0;;;24.0;;
53939;SDS011;39850;43.324;21.916;2023-05-27T17:45:29;23.0;;;24.0;;
53939;SDS011;39850;43.324;21.916;2023-05-27T17:50:09;23.0;;;24.0;;
53939;SDS011;39850;43.324;21.916;2023-05-27T17:54:46;23.0;;;24.0;;
53939;SDS011;39850;43.324;21.916;2023-05-27T17:59:22;23.0;;;24.0;;
53939;SDS011;39850;43.324;21.916;2023-05-27T18:03:59;23.0;;;24.0;;
53939;SDS011;39850;43.324;21.916;2023-05-27T18:08:36;28.0;;;29.0;;
53939;SDS011;39850;43.324;21.916;2023-05-27T18:13:12;28.0;;;29.0;;
53939;SDS011;39850;43.324;21.916;2023-05-27T18:17:49;32.0;;;34.0;;
53939;SDS011;39850;43.324;21.916;2023-05-27T18:22:26;32.0;;;34.0;;
53939;SDS011;39850;43.324;21.916;2023-05-27T18:59:46;14.0;;;13.0;;
53939;SDS011;39850;43.324;21.916;2023-05-27T19:04:23;14.0;;;13.0;;
53939;SDS011;39850;43.324;21.916;2023-05-27T19:09:00;14.0;;;13.0;;
53939;SDS011;39850;43.324;21.916;2023-05-27T19:13:37;14.0;;;13.0;;
53939;SDS011;39850;43.324;21.916;2023-05-27T19:18:14;14.0;;;13.0;;
53939;SDS011;39850;43.324;21.916;2023-05-27T19:22:51;14.0;;;13.0;;
53939;SDS011;39850;43.324;21.916;2023-05-27T19:27:28;14.0;;;13.0;;
53939;SDS011;39850;43.324;21.916;2023-05-27T19:32:05;14.0;;;13.0;;
53939;SDS011;39850;43.324;21.916;2023-05-27T19:36:42;14.0;;;13.0;;
53939;SDS011;39850;43.324;21.916;2023-05-27T19:41:18;14.0;;;13.0;;
53939;SDS011;39850;43.324;21.916;2023-05-27T20:18:11;21.0;;;20.0;;
53939;SDS011;39850;43.324;21.916;2023-05-27T20:22:48;21.0;;;20.0;;
53939;SDS011;39850;43.324;21.916;2023-05-27T20:27:25;21.0;;;20.0;;
53939;SDS011;39850;43.324;21.916;2023-05-27T20:32:01;21.0;;;20.0;;
53939;SDS011;39850;43.324;21.916;2023-05-27T20:36:38;21.0;;;20.0;;
53939;SDS011;39850;43.324;21.916;2023-05-27T20:41:14;21.0;;;20.0;;
53939;SDS011;39850;43.324;21.916;2023-05-27T20:45:50;20.0;;;18.0;;
53939;SDS011;39850;43.324;21.916;2023-05-27T20:50:27;20.0;;;18.0;;
53939;SDS011;39850;43.324;21.916;2023-05-27T20:55:06;20.0;;;18.0;;
53939;SDS011;39850;43.324;21.916;2023-05-27T20:59:43;18.0;;;17.0;;
53939;SDS011;39850;43.324;21.916;2023-05-27T21:04:20;18.0;;;17.0;;
53939;SDS011;39850;43.324;21.916;2023-05-27T21:36:37;35.0;;;36.0;;
53939;SDS011;39850;43.324;21.916;2023-05-27T21:41:13;35.0;;;36.0;;
53939;SDS011;39850;43.324;21.916;2023-05-27T21:45:50;35.0;;;36.0;;
53939;SDS011;39850;43.324;21.916;2023-05-27T21:50:27;32.0;;;32.0;;
53939;SDS011;39850;43.324;21.916;2023-05-27T21:55:06;32.0;;;32.0;;
53939;SDS011;39850;43.324;21.916;2023-05-27T21:59:44;28.0;;;28.0;;
53939;SDS011;39850;43.324;21.916;2023-05-27T22:04:20;28.0;;;28.0;;
53939;SDS011;39850;43.324;21.916;2023-05-27T22:08:57;26.0;;;25.0;;
53939;SDS011;39850;43.324;21.916;2023-05-27T22:13:34;26.0;;;25.0;;
53939;SDS011;39850;43.324;21.916;2023-05-27T22:18:11;23.0;;;22.0;;
53939;SDS011;39850;43.324;21.916;2023-05-27T22:22:47;23.0;;;22.0;;
53939;SDS011;39850;43.324;21.916;2023-05-27T22:59:37;26.0;;;28.0;;
53939;SDS011;39850;43.324;21.916;2023-05-27T23:04:14;26.0;;;28.0;;
53939;SDS011;39850;43.324;21.916;2023-05-27T23:08:51;27.0;;;29.0;;
53939;SDS011;39850;43.324;21.916;2023-05-27T23:13:27;27.0;;;29.0;;
53939;SDS011;39850;43.324;21.916;2023-05-27T23:18:04;28.0;;;30.0;;
53939;SDS011;39850;43.324;21.916;2023-05-27T23:22:40;28.0;;;30.0;;
53939;SDS011;39850;43.324;21.916;2023-05-27T23:27:17;30.0;;;31.0;;
53939;SDS011;39850;43.324;21.916;2023-05-27T23:31:53;30.0;;;31.0;;
53939;SDS011;39850;43.324;21.916;2023-05-27T23:36:30;31.0;;;32.0;;
53939;SDS011;39850;43.324;21.916;2023-05-27T23:41:06;31.0;;;32.0;;
53939;SDS011;39850;43.324;21.916;2023-05-27T23:45:44;31.0;;;32.0;;
